Time;durP1;ratioP1;P1;durP2;ratioP2;P2;SDS_P1;SDS_P2;PMS_P1;PMS_P2;Temp;Humidity;BMP_temperature;BMP_pressure;BME280_temperature;BME280_humidity;BME280_pressure;Samples;Min_cycle;Max_cycle;Signal;HPM_P1;HPM_P2
2022/04/29 00:01:51;;;;;;;0.50;0.40;;;;;;;10.53;54.79;101520.98;103433;1279;99857;-66
2022/04/29 00:04:19;;;;;;;0.50;0.50;;;;;;;10.52;54.97;101518.34;103302;1279;138221;-67
2022/04/29 00:06:47;;;;;;;0.50;0.40;;;;;;;10.47;54.97;101519.26;103521;1279;95527;-65
2022/04/29 00:09:15;;;;;;;0.50;0.50;;;;;;;10.43;55.11;101519.64;103337;1279;138870;-66
2022/04/29 00:11:44;;;;;;;0.50;0.40;;;;;;;10.44;55.37;101520.16;103450;1279;109887;-66
2022/04/29 00:14:12;;;;;;;0.40;0.40;;;;;;;10.45;55.13;101521.95;103512;1279;99367;-67
2022/04/29 00:16:39;;;;;;;0.50;0.40;;;;;;;10.45;55.28;101518.21;103358;1279;137989;-65
2022/04/29 00:19:08;;;;;;;0.40;0.40;;;;;;;10.45;55.62;101516.61;103594;1279;95329;-65
2022/04/29 00:21:36;;;;;;;0.40;0.40;;;;;;;10.45;55.13;101516.27;103416;1279;138400;-67
2022/04/29 00:24:04;;;;;;;0.50;0.50;;;;;;;10.46;54.97;101520.33;103383;1279;109598;-65
2022/04/29 00:26:32;;;;;;;0.50;0.50;;;;;;;10.47;55.04;101517.84;103623;1277;99620;-65
2022/04/29 00:29:00;;;;;;;0.40;0.40;;;;;;;10.46;55.23;101517.15;103342;1279;138052;-65
2022/04/29 00:31:28;;;;;;;0.40;0.40;;;;;;;10.46;55.34;101515.36;103430;1279;96180;-66
2022/04/29 00:33:57;;;;;;;0.50;0.50;;;;;;;10.41;55.41;101513.09;103478;1279;138725;-67
2022/04/29 00:36:25;;;;;;;0.50;0.50;;;;;;;10.31;55.64;101511.71;103567;1279;109913;-65
2022/04/29 00:38:54;;;;;;;0.50;0.50;;;;;;;10.18;55.67;101512.33;103776;1279;99389;-67
2022/04/29 00:41:23;;;;;;;0.50;0.50;;;;;;;10.10;56.10;101510.95;103327;1279;139299;-67
2022/04/29 00:44:04;;;;;;;0.60;0.60;;;;;;;10.11;56.22;101511.14;103533;1279;95752;-66
2022/04/29 00:46:45;;;;;;;0.50;0.50;;;;;;;10.10;56.26;101511.31;103381;1279;138882;-65
2022/04/29 00:49:15;;;;;;;0.50;0.50;;;;;;;10.06;56.19;101507.80;103455;1279;110108;-67
2022/04/29 00:51:47;;;;;;;0.50;0.50;;;;;;;10.02;56.57;101510.30;103347;1279;139135;-67
2022/04/29 00:54:24;;;;;;;0.50;0.50;;;;;;;10.03;56.41;101507.64;103438;1279;107859;-66
2022/04/29 00:56:53;;;;;;;0.50;0.50;;;;;;;10.05;56.47;101506.20;103411;1279;95913;-66
2022/04/29 00:59:29;;;;;;;0.60;0.60;;;;;;;10.02;56.57;101502.68;103339;1279;138286;-65
2022/04/29 01:01:58;;;;;;;0.50;0.40;;;;;;;10.01;56.57;101498.08;103471;1279;109700;-67
2022/04/29 01:04:38;;;;;;;0.50;0.50;;;;;;;9.97;56.65;101492.77;103305;1279;139018;-67
2022/04/29 01:07:06;;;;;;;0.50;0.50;;;;;;;9.96;56.75;101494.02;103526;1279;108786;-67
2022/04/29 01:09:35;;;;;;;0.40;0.40;;;;;;;10.01;56.74;101493.64;103535;1279;139009;-65
2022/04/29 01:12:04;;;;;;;0.50;0.50;;;;;;;10.01;56.70;101488.31;103450;1279;95199;-67
2022/04/29 01:14:32;;;;;;;0.50;0.50;;;;;;;9.97;56.72;101485.31;103504;1279;108744;-66
2022/04/29 01:17:00;;;;;;;0.50;0.50;;;;;;;9.92;56.98;101487.14;103479;1279;140112;-65
2022/04/29 01:19:30;;;;;;;0.60;0.60;;;;;;;9.90;56.98;101484.85;103447;1279;108455;-66
2022/04/29 01:22:00;;;;;;;0.50;0.50;;;;;;;9.90;57.07;101482.71;103171;1279;139292;-67
2022/04/29 01:24:28;;;;;;;0.50;0.40;;;;;;;9.95;57.10;101481.96;103612;1279;95238;-65
2022/04/29 01:26:56;;;;;;;0.40;0.40;;;;;;;9.95;56.99;101477.53;103412;1279;109678;-67
2022/04/29 01:29:24;;;;;;;0.50;0.50;;;;;;;9.90;57.24;101477.02;103373;1279;138264;-67
2022/04/29 01:31:54;;;;;;;0.50;0.50;;;;;;;9.87;57.09;101477.57;103580;1279;108962;-67
2022/04/29 01:34:22;;;;;;;0.50;0.50;;;;;;;9.85;57.06;101474.04;103424;1279;139273;-67
2022/04/29 01:36:50;;;;;;;0.50;0.50;;;;;;;9.85;57.07;101471.73;103374;1279;96557;-67
2022/04/29 01:39:18;;;;;;;0.50;0.50;;;;;;;9.83;57.19;101469.44;103368;1279;139191;-68
2022/04/29 01:41:46;;;;;;;0.50;0.50;;;;;;;9.81;57.15;101469.63;103335;1279;99389;-66
2022/04/29 01:44:14;;;;;;;0.60;0.60;;;;;;;9.76;57.05;101467.18;103447;1279;109162;-66
2022/04/29 01:46:43;;;;;;;0.50;0.50;;;;;;;9.76;57.11;101470.36;103277;1279;139452;-64
2022/04/29 01:49:30;;;;;;;0.50;0.50;;;;;;;9.79;56.96;101470.89;103435;1279;95147;-66
2022/04/29 01:52:01;;;;;;;0.50;0.50;;;;;;;9.74;56.98;101470.38;103375;1279;137966;-66
2022/04/29 01:54:29;;;;;;;0.50;0.50;;;;;;;9.68;57.32;101469.34;103562;1279;98948;-67
2022/04/29 01:56:57;;;;;;;0.50;0.50;;;;;;;9.63;57.37;101471.14;103435;1279;108896;-65
2022/04/29 01:59:26;;;;;;;0.50;0.50;;;;;;;9.58;57.55;101470.11;103270;1279;138974;-66
2022/04/29 02:02:14;;;;;;;0.50;0.50;;;;;;;9.51;57.65;101467.30;103024;1279;95391;-64
2022/04/29 02:04:42;;;;;;;0.50;0.50;;;;;;;9.43;57.96;101466.29;103345;1278;138634;-66
2022/04/29 02:07:10;;;;;;;0.50;0.50;;;;;;;9.37;58.07;101465.61;103428;1279;99527;-66
2022/04/29 02:09:42;;;;;;;0.50;0.50;;;;;;;9.37;58.27;101464.35;103298;1279;138458;-66
2022/04/29 02:12:11;;;;;;;0.50;0.50;;;;;;;9.37;58.18;101464.54;103375;1279;95888;-67
2022/04/29 02:15:03;;;;;;;0.50;0.50;;;;;;;9.31;58.28;101465.27;103181;1279;95647;-65
2022/04/29 02:17:38;;;;;;;0.50;0.50;;;;;;;9.35;57.87;101463.13;103305;1281;138487;-66
2022/04/29 02:20:08;;;;;;;0.50;0.50;;;;;;;9.38;57.95;101463.80;103697;1279;99414;-67
2022/04/29 02:22:39;;;;;;;0.50;0.50;;;;;;;9.27;58.15;101462.63;103379;1279;138424;-66
2022/04/29 02:25:08;;;;;;;0.50;0.50;;;;;;;9.14;58.62;101460.53;103278;1277;95315;-65
2022/04/29 02:27:39;;;;;;;0.50;0.50;;;;;;;9.07;58.76;101459.51;103329;1279;138844;-67
2022/04/29 02:30:08;;;;;;;0.50;0.40;;;;;;;9.06;58.73;101453.29;103614;1279;110037;-67
2022/04/29 02:32:36;;;;;;;0.50;0.50;;;;;;;9.06;58.86;101451.88;103662;1279;98387;-67
2022/04/29 02:35:05;;;;;;;0.50;0.50;;;;;;;9.01;59.16;101451.90;103307;1279;137982;-66
2022/04/29 02:37:34;;;;;;;0.50;0.50;;;;;;;8.98;59.28;101451.02;103592;1279;97024;-65
2022/04/29 02:40:02;;;;;;;0.50;0.50;;;;;;;9.00;59.55;101451.37;103213;1279;138554;-66
2022/04/29 02:42:30;;;;;;;0.50;0.50;;;;;;;9.01;59.53;101447.11;103466;1280;108653;-66
2022/04/29 02:44:58;;;;;;;0.50;0.50;;;;;;;9.04;59.33;101447.99;103471;1279;99869;-66
2022/04/29 02:47:38;;;;;;;0.60;0.60;;;;;;;9.06;58.97;101444.98;103382;1279;138361;-67
2022/04/29 02:50:07;;;;;;;0.50;0.50;;;;;;;9.15;58.97;101442.29;103435;1279;95762;-66
2022/04/29 02:52:36;;;;;;;0.50;0.50;;;;;;;9.23;58.79;101444.20;103352;1277;139219;-65
2022/04/29 02:55:04;;;;;;;0.50;0.40;;;;;;;9.30;58.54;101444.18;103400;1279;109460;-68
2022/04/29 02:58:05;;;;;;;0.50;0.50;;;;;;;9.30;58.83;101444.54;102883;1278;138117;-66
2022/04/29 03:00:33;;;;;;;0.50;0.50;;;;;;;9.27;59.12;101445.26;103420;1279;108900;-66
2022/04/29 03:03:01;;;;;;;0.50;0.50;;;;;;;9.26;59.30;101439.94;103398;1279;95701;-65
2022/04/29 03:05:29;;;;;;;0.50;0.50;;;;;;;9.29;59.30;101443.30;103357;1279;139026;-68
2022/04/29 03:07:57;;;;;;;0.50;0.50;;;;;;;9.30;59.59;101442.23;103456;1279;109724;-67
2022/04/29 03:10:25;;;;;;;0.60;0.60;;;;;;;9.19;60.07;101440.15;103330;1279;138517;-66
2022/04/29 03:12:54;;;;;;;0.50;0.50;;;;;;;9.22;60.08;101443.14;103519;1279;108851;-68
2022/04/29 03:15:30;;;;;;;0.50;0.50;;;;;;;9.26;60.08;101441.16;103280;1279;138692;-68
2022/04/29 03:20:47;;;;;;;0.50;0.50;;;;;;;9.36;60.10;101446.45;103327;1279;109708;-67
2022/04/29 03:23:16;;;;;;;0.50;0.50;;;;;;;9.49;59.62;101449.76;103325;1280;138495;-67
2022/04/29 03:25:56;;;;;;;0.50;0.40;;;;;;;9.64;59.31;101449.52;103429;1279;109021;-65
2022/04/29 03:28:25;;;;;;;0.50;0.40;;;;;;;9.73;59.00;101449.64;103360;1278;138132;-68
2022/04/29 03:30:54;;;;;;;0.50;0.40;;;;;;;9.80;58.76;101452.25;103535;1279;95145;-66
2022/04/29 03:33:25;;;;;;;0.50;0.50;;;;;;;9.81;58.44;101448.70;103525;1280;138150;-67
2022/04/29 03:35:53;;;;;;;0.50;0.50;;;;;;;9.80;58.84;101445.70;103547;1279;99912;-64
2022/04/29 03:38:27;;;;;;;0.50;0.50;;;;;;;9.75;59.10;101448.21;103367;1279;108234;-67
2022/04/29 03:40:55;;;;;;;0.50;0.40;;;;;;;9.66;59.10;101448.97;103305;1279;138137;-65
2022/04/29 03:43:25;;;;;;;0.50;0.50;;;;;;;9.61;59.22;101446.69;103518;1279;95225;-65
2022/04/29 03:45:54;;;;;;;0.50;0.50;;;;;;;9.60;59.36;101447.05;103398;1279;138880;-67
2022/04/29 03:51:51;;;;;;;0.50;0.40;;;;;;;9.47;59.67;101447.64;103334;1279;142113;-67
2022/04/29 03:54:19;;;;;;;0.50;0.50;;;;;;;9.40;59.89;101450.16;103481;1279;95274;-68
2022/04/29 03:56:59;;;;;;;0.50;0.50;;;;;;;9.42;60.12;101456.53;103522;1279;95305;-65
2022/04/29 03:59:29;;;;;;;0.50;0.50;;;;;;;9.47;60.03;101457.57;103340;1279;138685;-67
2022/04/29 04:01:58;;;;;;;0.50;0.40;;;;;;;9.56;59.72;101454.16;103634;1279;99368;-67
2022/04/29 04:04:26;;;;;;;0.50;0.50;;;;;;;9.60;59.61;101452.91;103369;1279;138043;-66
2022/04/29 04:07:01;;;;;;;0.50;0.50;;;;;;;9.64;59.25;101454.64;103267;1279;95656;-66
2022/04/29 04:09:49;;;;;;;0.50;0.50;;;;;;;9.62;59.44;101455.55;103414;1279;138472;-67
2022/04/29 04:12:17;;;;;;;0.50;0.40;;;;;;;9.62;59.58;101457.48;103230;1280;147063;-65
2022/04/29 04:15:23;;;;;;;0.40;0.40;;;;;;;9.68;59.32;101457.83;103344;1279;138661;-66
2022/04/29 04:17:51;;;;;;;0.50;0.40;;;;;;;9.69;59.32;101454.63;103403;1280;109241;-67
2022/04/29 04:20:20;;;;;;;0.50;0.50;;;;;;;9.75;59.03;101455.83;103539;1279;95784;-67
2022/04/29 04:23:09;;;;;;;0.50;0.50;;;;;;;9.85;58.74;101455.06;103356;1279;138786;-68
2022/04/29 04:25:37;;;;;;;0.50;0.40;;;;;;;9.91;59.11;101452.54;103512;1279;109732;-66
2022/04/29 04:28:05;;;;;;;0.50;0.40;;;;;;;9.89;59.34;101453.98;103327;1279;138705;-66
2022/04/29 04:30:44;;;;;;;0.50;0.50;;;;;;;9.77;59.34;101453.86;103445;1279;108781;-68
2022/04/29 04:33:12;;;;;;;0.50;0.50;;;;;;;9.67;59.79;101453.58;103605;1279;96150;-67
2022/04/29 04:35:40;;;;;;;0.50;0.40;;;;;;;9.71;59.88;101458.15;103262;1280;138358;-67
2022/04/29 04:38:08;;;;;;;0.50;0.40;;;;;;;9.75;59.88;101455.11;103530;1279;109507;-66
2022/04/29 04:40:45;;;;;;;0.50;0.40;;;;;;;9.76;59.83;101458.83;103282;1279;138323;-66
2022/04/29 04:43:18;;;;;;;0.40;0.40;;;;;;;9.81;59.84;101456.85;103477;1279;109388;-66
2022/04/29 04:45:48;;;;;;;0.50;0.50;;;;;;;9.84;59.72;101461.09;103230;1279;140027;-66
2022/04/29 04:48:35;;;;;;;0.50;0.50;;;;;;;9.91;59.44;101461.95;103490;1279;95722;-66
2022/04/29 04:51:23;;;;;;;0.40;0.40;;;;;;;9.99;59.50;101461.18;103120;1279;138498;-68
2022/04/29 04:53:54;;;;;;;0.50;0.40;;;;;;;10.02;59.14;101460.27;103372;1279;99486;-67
2022/04/29 04:56:23;;;;;;;0.50;0.40;;;;;;;10.00;59.12;101463.31;103689;1279;108823;-66
2022/04/29 04:58:51;;;;;;;0.60;0.60;;;;;;;10.03;59.15;101462.39;103406;1279;139011;-68
2022/04/29 05:01:20;;;;;;;0.50;0.50;;;;;;;10.08;59.01;101463.43;103520;1279;95622;-66
2022/04/29 05:04:07;;;;;;;0.40;0.40;;;;;;;10.12;59.06;101463.92;103339;1279;138859;-66
2022/04/29 05:06:54;;;;;;;0.50;0.40;;;;;;;10.16;58.69;101464.97;103462;1279;99469;-66
2022/04/29 05:09:22;;;;;;;0.50;0.40;;;;;;;10.14;58.95;101466.40;103183;1279;138832;-65
2022/04/29 05:11:51;;;;;;;0.50;0.50;;;;;;;10.13;58.94;101463.39;103524;1279;95325;-67
2022/04/29 05:15:01;;;;;;;0.50;0.50;;;;;;;10.20;58.92;101464.95;103381;1279;95421;-67
2022/04/29 05:17:29;;;;;;;0.40;0.40;;;;;;;10.25;58.82;101467.02;103832;1280;138784;-66
2022/04/29 05:20:18;;;;;;;0.50;0.40;;;;;;;10.34;58.58;101468.21;103359;1280;98384;-67
2022/04/29 05:22:48;;;;;;;0.50;0.40;;;;;;;10.37;58.69;101470.16;103179;1279;138525;-67
2022/04/29 05:25:16;;;;;;;0.50;0.40;;;;;;;10.41;58.69;101466.39;103532;1279;95854;-66
2022/04/29 05:28:04;;;;;;;0.40;0.40;;;;;;;10.53;58.47;101472.34;103344;1279;138482;-67
2022/04/29 05:30:41;;;;;;;0.40;0.40;;;;;;;10.63;58.39;101467.62;103493;1279;109874;-67
2022/04/29 05:33:28;;;;;;;0.40;0.40;;;;;;;10.70;58.30;101467.73;103386;1279;138482;-67
2022/04/29 05:36:15;;;;;;;0.50;0.40;;;;;;;10.90;57.95;101462.91;103437;1279;107486;-66
2022/04/29 05:44:36;;;;;;;0.60;0.60;;;;;;;11.33;57.23;101465.82;104018;1280;109871;-64
2022/04/29 05:47:05;;;;;;;0.40;0.40;;;;;;;11.33;57.13;101463.48;103480;1279;138436;-66
2022/04/29 05:49:34;;;;;;;0.40;0.40;;;;;;;11.42;57.50;101463.74;103383;1280;108904;-67
2022/04/29 05:52:04;;;;;;;0.40;0.40;;;;;;;11.52;57.20;101466.45;103297;1279;138580;-65
2022/04/29 05:54:34;;;;;;;0.40;0.30;;;;;;;11.65;57.11;101463.45;103397;1280;95568;-67
2022/04/29 05:57:10;;;;;;;0.40;0.30;;;;;;;11.88;56.90;101462.59;103648;1279;109349;-68
2022/04/29 05:59:38;;;;;;;0.40;0.30;;;;;;;12.12;56.57;101465.10;103265;1279;138274;-68
2022/04/29 06:02:24;;;;;;;0.40;0.30;;;;;;;12.33;55.87;101468.16;103351;1279;108845;-65
2022/04/29 06:05:03;;;;;;;0.40;0.40;;;;;;;12.48;55.75;101466.85;103056;1280;138353;-66
2022/04/29 06:07:31;;;;;;;0.40;0.30;;;;;;;12.56;55.25;101462.95;103353;1279;95241;-67
2022/04/29 06:09:59;;;;;;;0.40;0.30;;;;;;;12.68;55.24;101463.99;103110;1279;138851;-68
2022/04/29 06:12:27;;;;;;;0.40;0.30;;;;;;;12.73;55.35;101468.18;103452;1279;98980;-67
2022/04/29 06:14:55;;;;;;;0.40;0.30;;;;;;;12.83;54.74;101468.88;103259;1279;109010;-66
2022/04/29 06:18:02;;;;;;;0.40;0.30;;;;;;;12.84;54.40;101473.86;103108;1287;138409;-68
2022/04/29 06:20:49;;;;;;;0.40;0.30;;;;;;;12.97;54.39;101473.63;102632;1287;95508;-66
2022/04/29 06:23:39;;;;;;;0.40;0.30;;;;;;;13.14;54.17;101475.61;103119;1279;138540;-67
2022/04/29 06:26:08;;;;;;;0.40;0.30;;;;;;;13.25;53.67;101473.62;103305;1279;99441;-67
2022/04/29 06:28:36;;;;;;;0.40;0.30;;;;;;;13.26;53.57;101479.85;103331;1279;138278;-68
2022/04/29 06:31:05;;;;;;;0.40;0.30;;;;;;;13.19;53.70;101478.71;103421;1279;95245;-67
2022/04/29 06:33:38;;;;;;;0.40;0.30;;;;;;;13.24;54.19;101480.77;103259;1279;96039;-66
2022/04/29 06:36:09;;;;;;;0.40;0.30;;;;;;;13.35;53.70;101481.45;103290;1279;138074;-68
2022/04/29 06:38:37;;;;;;;0.40;0.30;;;;;;;13.45;53.46;101483.22;103419;1279;99416;-68
2022/04/29 06:41:24;;;;;;;0.40;0.30;;;;;;;13.61;53.18;101486.11;103257;1279;138341;-65
2022/04/29 06:44:01;;;;;;;0.40;0.30;;;;;;;13.71;53.07;101488.73;103286;1279;95237;-67
2022/04/29 06:46:52;;;;;;;0.40;0.30;;;;;;;13.80;52.77;101490.34;102830;1279;139050;-67
2022/04/29 06:49:38;;;;;;;0.40;0.30;;;;;;;13.80;52.71;101491.58;103303;1279;108364;-66
2022/04/29 06:52:25;;;;;;;0.40;0.30;;;;;;;13.77;52.53;101493.80;103133;1279;138591;-66
2022/04/29 06:55:08;;;;;;;0.40;0.20;;;;;;;13.78;52.70;101495.17;103156;1279;109101;-67
2022/04/29 06:57:36;;;;;;;0.40;0.30;;;;;;;13.84;52.46;101496.14;103201;1279;95489;-67
2022/04/29 07:00:05;;;;;;;0.40;0.20;;;;;;;13.89;52.37;101494.95;103070;1282;138316;-65
2022/04/29 07:02:33;;;;;;;0.40;0.20;;;;;;;13.95;52.14;101497.13;103743;1279;109700;-65
2022/04/29 07:05:03;;;;;;;0.40;0.30;;;;;;;13.97;51.86;101495.15;103006;1279;138431;-66
2022/04/29 07:07:31;;;;;;;0.40;0.30;;;;;;;13.97;51.81;101501.57;103229;1279;107784;-66
2022/04/29 07:10:10;;;;;;;0.40;0.20;;;;;;;13.92;51.92;101500.41;103014;1279;138742;-66
2022/04/29 07:12:56;;;;;;;0.40;0.20;;;;;;;13.88;51.82;101504.96;103247;1279;95179;-66
2022/04/29 07:15:24;;;;;;;0.40;0.30;;;;;;;13.86;51.93;101503.23;103447;1279;109960;-66
2022/04/29 07:17:56;;;;;;;0.40;0.20;;;;;;;13.88;51.93;101499.80;103246;1280;140603;-66
2022/04/29 07:20:24;;;;;;;0.40;0.30;;;;;;;13.89;51.92;101502.97;103332;1280;108796;-66
2022/04/29 07:22:53;;;;;;;0.40;0.30;;;;;;;13.93;52.14;101505.21;103257;1279;138391;-66
2022/04/29 07:25:21;;;;;;;0.40;0.30;;;;;;;13.89;51.77;101507.98;103359;1279;95355;-65
2022/04/29 07:27:50;;;;;;;0.40;0.20;;;;;;;13.83;52.03;101507.58;103911;1279;138580;-65
2022/04/29 07:30:18;;;;;;;0.40;0.20;;;;;;;13.84;52.02;101507.20;103148;1280;100248;-69
2022/04/29 07:33:08;;;;;;;0.40;0.20;;;;;;;13.91;51.98;101503.84;103396;1279;107621;-69
2022/04/29 07:41:45;;;;;;;0.40;0.30;;;;;;;14.09;50.95;101500.92;104084;1279;138685;-68
2022/04/29 07:44:15;;;;;;;0.40;0.20;;;;;;;14.13;50.90;101498.51;103420;1279;100140;-70
2022/04/29 07:46:47;;;;;;;0.40;0.20;;;;;;;14.25;50.93;101499.49;103154;1280;138905;-69
2022/04/29 07:49:46;;;;;;;0.40;0.20;;;;;;;14.25;50.20;101496.64;103256;1279;95729;-70
2022/04/29 07:52:17;;;;;;;0.40;0.30;;;;;;;14.37;50.29;101491.48;103351;1279;138301;-69
2022/04/29 07:54:45;;;;;;;0.40;0.30;;;;;;;14.50;50.00;101492.06;103357;1280;109882;-69
2022/04/29 07:57:13;;;;;;;0.40;0.20;;;;;;;14.65;50.08;101491.01;103854;1279;99591;-68
2022/04/29 07:59:41;;;;;;;0.40;0.20;;;;;;;14.71;49.58;101485.85;103258;1280;138715;-69
2022/04/29 08:02:27;;;;;;;0.40;0.20;;;;;;;14.87;49.80;101481.50;103423;1279;95805;-69
2022/04/29 08:04:56;;;;;;;0.40;0.20;;;;;;;15.03;48.91;101475.89;103212;1280;138191;-68
2022/04/29 08:07:24;;;;;;;0.40;0.20;;;;;;;15.05;47.80;101476.16;103396;1279;109637;-68
2022/04/29 08:09:52;;;;;;;0.40;0.20;;;;;;;15.09;48.10;101475.36;103089;1280;139051;-68
2022/04/29 08:12:21;;;;;;;0.40;0.20;;;;;;;15.20;47.91;101475.06;103366;1279;109438;-70
2022/04/29 08:15:09;;;;;;;0.40;0.20;;;;;;;15.27;47.55;101472.00;104147;1279;95585;-69
2022/04/29 08:18:00;;;;;;;0.40;0.20;;;;;;;15.62;47.43;101468.83;103233;1279;138159;-69
2022/04/29 08:20:28;;;;;;;0.40;0.30;;;;;;;15.89;47.44;101467.70;103373;1280;110369;-69
2022/04/29 08:22:56;;;;;;;0.40;0.20;;;;;;;15.97;46.14;101465.63;103364;1279;138626;-68
2022/04/29 08:25:25;;;;;;;0.40;0.20;;;;;;;16.00;46.46;101461.80;103238;1279;108830;-70
2022/04/29 08:27:53;;;;;;;0.40;0.20;;;;;;;16.10;45.90;101463.42;103306;1279;138448;-69
2022/04/29 08:30:22;;;;;;;0.40;0.20;;;;;;;16.22;46.04;101457.11;103299;1280;96560;-70
2022/04/29 08:32:50;;;;;;;0.40;0.20;;;;;;;16.45;45.48;101453.49;103118;1281;109836;-69
2022/04/29 08:35:30;;;;;;;0.40;0.20;;;;;;;16.59;45.21;101448.73;103786;1280;138230;-71
2022/04/29 08:37:58;;;;;;;0.40;0.20;;;;;;;16.76;45.28;101451.73;104112;1279;108896;-69
2022/04/29 08:40:33;;;;;;;0.40;0.20;;;;;;;16.84;44.24;101448.94;104077;1279;138666;-70
2022/04/29 08:43:04;;;;;;;0.40;0.20;;;;;;;16.95;44.58;101450.87;104004;1281;95184;-71
2022/04/29 08:45:32;;;;;;;0.40;0.20;;;;;;;17.19;43.98;101449.68;104145;1279;110943;-69
2022/04/29 08:48:18;;;;;;;0.40;0.20;;;;;;;17.40;43.12;101448.52;104095;1279;138140;-69
2022/04/29 08:50:47;;;;;;;0.40;0.20;;;;;;;17.53;42.30;101447.47;103428;1279;109113;-70
2022/04/29 08:53:17;;;;;;;0.40;0.20;;;;;;;17.58;42.11;101449.63;103948;1279;138403;-73
2022/04/29 08:58:37;;;;;;;0.40;0.10;;;;;;;18.18;41.47;101439.73;104028;1279;138631;-71
2022/04/29 09:01:10;;;;;;;0.40;0.10;;;;;;;18.49;40.43;101431.97;104230;1279;98503;-67
2022/04/29 09:03:42;;;;;;;0.40;0.10;;;;;;;18.44;40.30;101434.31;104276;1279;108855;-72
2022/04/29 09:06:10;;;;;;;0.40;0.10;;;;;;;18.28;39.78;101434.45;104562;1278;138779;-71
2022/04/29 09:08:42;;;;;;;0.40;0.10;;;;;;;18.33;40.21;101434.05;103442;1278;95512;-70
2022/04/29 09:11:23;;;;;;;0.40;0.10;;;;;;;19.20;37.92;101424.34;104376;1278;138604;-69
2022/04/29 09:13:51;;;;;;;0.40;0.10;;;;;;;19.85;38.00;101423.45;104255;1278;99498;-69
2022/04/29 09:16:21;;;;;;;0.40;0.10;;;;;;;19.93;35.73;101416.83;104113;1279;141272;-70
2022/04/29 09:18:55;;;;;;;0.40;0.10;;;;;;;19.88;35.01;101415.19;104198;1280;95344;-72
2022/04/29 09:21:27;;;;;;;0.40;0.10;;;;;;;19.72;33.42;101416.16;105528;1278;96651;-66
2022/04/29 09:23:59;;;;;;;0.40;0.10;;;;;;;19.37;34.25;101421.21;103561;1279;138544;-70
2022/04/29 09:26:38;;;;;;;0.40;0.10;;;;;;;19.18;35.37;101417.05;104250;1278;98441;-68
2022/04/29 09:29:20;;;;;;;0.40;0.10;;;;;;;19.02;35.04;101420.10;103384;1280;138061;-67
2022/04/29 09:32:01;;;;;;;0.40;0.10;;;;;;;18.74;35.45;101414.33;103542;1279;95509;-66
2022/04/29 09:34:55;;;;;;;0.40;0.10;;;;;;;18.56;36.12;101412.04;103341;1278;138228;-66
2022/04/29 09:37:25;;;;;;;0.40;0.10;;;;;;;18.45;36.77;101412.52;103585;1280;109708;-71
2022/04/29 09:40:05;;;;;;;0.40;0.10;;;;;;;18.29;35.95;101411.42;103278;1279;138445;-71
2022/04/29 09:42:42;;;;;;;0.40;0.10;;;;;;;18.19;36.31;101419.22;103234;1278;108781;-67
2022/04/29 09:45:23;;;;;;;0.40;0.10;;;;;;;18.17;36.65;101413.15;103356;1278;95790;-67
2022/04/29 09:47:56;;;;;;;0.40;0.10;;;;;;;18.12;36.88;101419.49;103415;1278;138102;-67
2022/04/29 09:50:47;;;;;;;0.40;0.10;;;;;;;17.97;37.52;101421.92;103740;1280;109775;-67
2022/04/29 09:53:23;;;;;;;0.40;0.10;;;;;;;17.79;37.39;101421.86;103655;1277;138769;-67
2022/04/29 09:56:12;;;;;;;0.40;0.20;;;;;;;17.69;37.25;101424.06;103605;1278;109061;-68
2022/04/29 09:58:40;;;;;;;0.40;0.10;;;;;;;17.62;35.57;101418.75;103412;1278;138987;-66
2022/04/29 10:01:09;;;;;;;0.40;0.10;;;;;;;17.49;35.56;101415.67;103510;1278;95220;-67
2022/04/29 10:03:39;;;;;;;0.40;0.10;;;;;;;17.46;36.65;101417.61;103572;1280;109652;-68
2022/04/29 10:06:10;;;;;;;0.40;0.10;;;;;;;17.46;36.80;101413.46;103346;1279;138400;-66
2022/04/29 10:08:39;;;;;;;0.40;0.10;;;;;;;17.43;36.55;101414.85;103434;1278;108881;-64
2022/04/29 10:11:07;;;;;;;0.40;0.10;;;;;;;17.35;36.75;101416.20;103828;1280;138251;-66
2022/04/29 10:13:36;;;;;;;0.40;0.10;;;;;;;17.31;36.82;101414.21;103334;1278;96476;-66
2022/04/29 10:16:13;;;;;;;0.40;0.10;;;;;;;17.19;37.69;101412.15;103288;1282;138453;-66
2022/04/29 10:22:13;;;;;;;0.40;0.10;;;;;;;18.02;37.78;101405.70;103176;1280;139489;-70
2022/04/29 10:24:42;;;;;;;0.40;0.10;;;;;;;18.35;37.38;101397.13;103637;1280;96810;-69
2022/04/29 10:27:11;;;;;;;0.40;0.20;;;;;;;18.33;36.57;101392.17;103440;1280;95761;-69
2022/04/29 10:29:40;;;;;;;0.40;0.20;;;;;;;19.95;36.30;101391.17;104093;1278;138488;-70
2022/04/29 10:32:10;;;;;;;0.40;0.10;;;;;;;21.99;32.74;101383.57;103984;1281;98308;-68
2022/04/29 10:34:38;;;;;;;0.40;0.10;;;;;;;23.27;28.97;101376.52;103986;1279;138859;-71
2022/04/29 10:37:11;;;;;;;0.40;0.10;;;;;;;24.45;29.55;101376.95;103440;1280;95272;-63
2022/04/29 10:39:41;;;;;;;0.40;0.00;;;;;;;25.26;27.36;101378.16;103572;1280;96261;-65
2022/04/29 10:42:09;;;;;;;0.40;0.00;;;;;;;24.39;26.80;101377.17;103376;1280;138744;-67
2022/04/29 10:45:01;;;;;;;0.40;0.00;;;;;;;23.45;27.24;101377.95;103504;1280;98306;-66
2022/04/29 10:47:48;;;;;;;0.40;0.10;;;;;;;22.48;28.03;101378.56;103413;1281;138175;-65
2022/04/29 10:50:30;;;;;;;0.40;0.10;;;;;;;21.51;29.50;101381.65;103593;1280;95854;-68
2022/04/29 10:53:25;;;;;;;0.40;0.10;;;;;;;20.57;30.20;101376.02;103926;1280;137960;-65
2022/04/29 10:56:31;;;;;;;0.40;0.10;;;;;;;20.49;32.56;101371.22;104289;1278;111489;-68
2022/04/29 10:59:04;;;;;;;0.40;0.10;;;;;;;20.48;31.06;101374.66;103569;1280;140530;-65
2022/04/29 11:01:33;;;;;;;0.40;0.10;;;;;;;20.27;32.55;101373.96;103592;1280;108803;-67
2022/04/29 11:04:15;;;;;;;0.40;0.10;;;;;;;20.04;30.61;101371.15;103364;1280;138744;-68
2022/04/29 11:06:46;;;;;;;0.40;0.10;;;;;;;19.81;31.23;101369.27;103345;1281;95858;-66
2022/04/29 11:09:45;;;;;;;0.40;0.10;;;;;;;19.50;31.50;101377.23;103649;1280;109771;-69
2022/04/29 11:12:30;;;;;;;0.40;0.10;;;;;;;19.01;31.37;101375.73;103315;1281;142669;-68
2022/04/29 11:15:21;;;;;;;0.40;0.10;;;;;;;18.67;33.35;101380.62;103427;1280;108842;-65
2022/04/29 11:18:23;;;;;;;0.40;0.10;;;;;;;18.46;33.48;101375.96;103345;1281;138415;-66
2022/04/29 11:20:56;;;;;;;0.40;0.10;;;;;;;18.28;33.96;101375.30;103850;1278;95189;-67
2022/04/29 11:26:17;;;;;;;0.40;0.10;;;;;;;18.54;34.08;101364.48;104219;1278;99461;-70
2022/04/29 11:28:53;;;;;;;0.40;0.10;;;;;;;18.55;34.68;101362.44;104081;1280;138090;-63
2022/04/29 11:31:48;;;;;;;0.40;0.10;;;;;;;18.52;35.18;101358.83;103220;1281;95231;-68
2022/04/29 11:34:16;;;;;;;0.40;0.10;;;;;;;18.45;35.16;101360.91;103380;1280;138432;-67
2022/04/29 11:36:44;;;;;;;0.40;0.10;;;;;;;18.40;35.36;101358.08;103444;1280;109702;-68
2022/04/29 11:39:19;;;;;;;0.40;0.20;;;;;;;18.30;35.17;101356.34;103388;1281;99410;-67
2022/04/29 11:41:55;;;;;;;0.40;0.10;;;;;;;18.34;35.11;101354.00;103373;1281;138804;-68
2022/04/29 11:44:38;;;;;;;0.40;0.10;;;;;;;18.47;35.36;101352.20;103677;1281;95688;-68
2022/04/29 11:47:08;;;;;;;0.40;0.20;;;;;;;18.43;34.11;101348.05;103566;1280;138739;-67
2022/04/29 11:49:42;;;;;;;0.40;0.10;;;;;;;18.31;33.65;101346.42;103731;1280;110350;-68
2022/04/29 11:52:24;;;;;;;0.40;0.10;;;;;;;18.28;33.68;101339.19;104062;1281;139059;-68
2022/04/29 11:55:01;;;;;;;0.40;0.10;;;;;;;18.25;33.45;101335.16;103767;1281;108869;-67
2022/04/29 11:57:31;;;;;;;0.40;0.10;;;;;;;18.27;33.31;101333.86;103386;1281;95320;-67
2022/04/29 12:00:00;;;;;;;0.40;0.10;;;;;;;18.22;33.25;101336.91;103579;1280;138624;-66
2022/04/29 12:02:45;;;;;;;0.40;0.10;;;;;;;18.20;32.86;101330.20;103401;1279;109919;-66
2022/04/29 12:05:15;;;;;;;0.40;0.10;;;;;;;18.25;33.31;101328.38;103095;1281;141135;-67
2022/04/29 12:07:45;;;;;;;0.40;0.10;;;;;;;18.29;32.81;101328.91;103605;1279;111191;-66
2022/04/29 12:10:26;;;;;;;0.40;0.10;;;;;;;18.25;32.32;101329.41;103137;1281;138419;-68
2022/04/29 12:12:55;;;;;;;0.40;0.10;;;;;;;18.26;32.48;101330.64;103541;1279;95163;-67